createdAt,value
2018-07-26T03:01:03.491Z,1.70
2018-07-26T03:02:04.374Z,2.80
2018-07-26T03:03:03.980Z,3.20
2018-07-26T03:04:02.569Z,2.90
2018-07-26T03:05:02.753Z,2.90
2018-07-26T03:06:02.867Z,2.80
2018-07-26T03:07:03.225Z,2.90
2018-07-26T03:08:03.210Z,3.20
2018-07-26T03:09:03.393Z,3.10
2018-07-26T03:10:03.509Z,3.00
2018-07-26T03:11:03.717Z,3.10
2018-07-26T03:12:03.865Z,3.40
2018-07-26T03:13:04.045Z,3.00
2018-07-26T03:14:04.240Z,2.90
2018-07-26T03:15:04.368Z,3.00
2018-07-26T03:16:04.585Z,3.30
2018-07-26T03:17:04.890Z,3.30
2018-07-26T03:18:05.089Z,3.10
2018-07-26T03:19:05.168Z,3.30
2018-07-26T03:20:05.379Z,3.40
2018-07-26T03:21:05.567Z,3.50
2018-07-26T03:22:05.601Z,3.20
2018-07-26T03:23:05.777Z,3.30
2018-07-26T03:24:05.953Z,3.30
2018-07-26T03:25:06.131Z,3.10
2018-07-26T03:26:06.312Z,3.50
2018-07-26T03:27:06.517Z,3.00
2018-07-26T03:28:06.673Z,3.20
2018-07-26T03:29:06.782Z,3.10
2018-07-26T03:30:07.017Z,3.20
2018-07-26T03:31:07.144Z,3.30
2018-07-26T03:32:07.265Z,3.30
2018-07-26T03:33:07.464Z,3.10
2018-07-26T03:34:07.637Z,3.60
2018-07-26T03:35:07.765Z,3.30
2018-07-26T03:36:07.982Z,3.30
2018-07-26T03:37:08.170Z,3.20
2018-07-26T03:38:08.340Z,3.60
2018-07-26T03:39:08.472Z,3.60
2018-07-26T03:40:08.612Z,3.20
2018-07-26T03:41:08.776Z,3.30
2018-07-26T03:42:09.007Z,3.40
2018-07-26T03:43:09.167Z,3.30
2018-07-26T03:44:09.327Z,3.50
2018-07-26T03:45:09.443Z,3.30
2018-07-26T03:46:09.696Z,3.60
2018-07-26T03:47:09.842Z,3.70
2018-07-26T03:48:10.047Z,3.70
2018-07-26T03:49:10.172Z,3.60
2018-07-26T03:50:10.374Z,3.40
2018-07-26T03:51:10.536Z,3.40
2018-07-26T03:52:10.704Z,3.30
2018-07-26T03:53:10.820Z,3.50
2018-07-26T03:54:10.974Z,3.70
2018-07-26T03:55:11.142Z,3.70
2018-07-26T03:56:11.301Z,3.60
2018-07-26T03:57:11.497Z,3.70
2018-07-26T03:58:11.689Z,3.70
2018-07-26T03:59:11.786Z,3.20
2018-07-26T04:00:11.994Z,3.50
2018-07-26T04:01:12.189Z,3.60
2018-07-26T04:02:12.336Z,3.30
2018-07-26T04:03:12.515Z,3.30
2018-07-26T04:04:12.639Z,3.70
2018-07-26T04:05:12.791Z,3.60
2018-07-26T04:06:12.982Z,3.40
2018-07-26T04:07:13.142Z,3.70
2018-07-26T04:08:13.328Z,3.70
2018-07-26T04:09:13.523Z,3.90
2018-07-26T04:10:13.704Z,3.50
2018-07-26T04:11:13.856Z,3.60
2018-07-26T04:12:14.061Z,3.70
2018-07-26T04:13:14.230Z,3.80
2018-07-26T04:14:14.427Z,3.60
2018-07-26T04:15:14.495Z,3.40
2018-07-26T04:16:14.715Z,3.50
2018-07-26T04:17:14.807Z,3.90
2018-07-26T04:18:15.014Z,3.40
2018-07-26T04:19:15.188Z,3.70
2018-07-26T04:20:15.376Z,3.40
2018-07-26T04:21:15.556Z,3.70
2018-07-26T04:22:15.708Z,3.50
2018-07-26T04:23:15.813Z,3.60
2018-07-26T04:24:16.065Z,3.50
2018-07-26T04:25:16.218Z,3.80
2018-07-26T04:26:16.355Z,3.90
2018-07-26T04:27:16.479Z,4.10
2018-07-26T04:28:16.666Z,3.90
2018-07-26T04:29:16.887Z,3.60
2018-07-26T04:30:16.990Z,3.50
2018-07-26T04:31:17.152Z,3.90
2018-07-26T04:32:17.420Z,3.70
2018-07-26T04:33:17.528Z,4.00
2018-07-26T04:34:17.660Z,4.10
2018-07-26T04:35:17.839Z,4.10
2018-07-26T04:36:17.943Z,3.50
2018-07-26T04:37:18.148Z,3.90
2018-07-26T04:38:18.395Z,3.80
2018-07-26T04:39:18.443Z,3.80
2018-07-26T04:40:18.598Z,4.10
2018-07-26T04:41:18.835Z,4.00
2018-07-26T04:42:18.972Z,3.90
2018-07-26T04:43:19.109Z,4.00
2018-07-26T04:44:19.385Z,3.80
2018-07-26T04:45:19.528Z,3.90
2018-07-26T04:46:19.639Z,3.90
2018-07-26T04:47:19.784Z,3.60
2018-07-26T04:48:19.936Z,3.80
2018-07-26T04:49:20.202Z,3.90
2018-07-26T04:50:20.350Z,3.90
2018-07-26T04:51:20.531Z,3.70
2018-07-26T04:52:20.704Z,3.80
2018-07-26T04:53:20.776Z,3.70
2018-07-26T04:54:21.031Z,4.10
2018-07-26T04:55:21.195Z,3.80
2018-07-26T04:56:21.327Z,3.70
2018-07-26T04:57:21.409Z,3.90
2018-07-26T04:58:21.631Z,3.60
2018-07-26T04:59:21.875Z,3.70
2018-07-26T05:00:22.051Z,3.70
2018-07-26T05:01:22.149Z,3.80
2018-07-26T05:02:22.324Z,3.90
2018-07-26T05:03:22.503Z,4.30
2018-07-26T05:04:22.626Z,3.80
2018-07-26T05:05:22.835Z,3.50
2018-07-26T05:06:23.060Z,3.60
2018-07-26T05:07:23.168Z,3.80
2018-07-26T05:08:23.350Z,3.80
2018-07-26T05:09:24.008Z,3.90
2018-07-26T05:10:23.723Z,3.90
2018-07-26T05:11:24.368Z,4.30
2018-07-26T05:12:24.133Z,4.10
2018-07-26T05:13:24.292Z,3.90
2018-07-26T05:14:24.403Z,3.90
2018-07-26T05:15:36.453Z,4.20
2018-07-26T05:16:26.976Z,4.20
2018-07-26T05:17:27.221Z,4.30
2018-07-26T05:18:25.236Z,4.40
2018-07-26T05:19:25.694Z,4.40
2018-07-26T05:20:25.458Z,4.70
2018-07-26T05:21:25.627Z,4.40
2018-07-26T05:22:25.939Z,4.60
2018-07-26T05:23:26.034Z,4.70
2018-07-26T05:24:26.184Z,4.80
2018-07-26T05:25:26.310Z,4.70
2018-07-26T05:26:26.517Z,4.60
2018-07-26T05:27:26.666Z,5.20
2018-07-26T05:28:26.859Z,4.20
2018-07-26T05:29:26.991Z,4.60
2018-07-26T05:30:27.182Z,4.70
2018-07-26T05:31:27.311Z,4.70
2018-07-26T05:32:27.548Z,4.30
2018-07-26T05:33:27.656Z,4.70
2018-07-26T05:34:27.813Z,4.20
2018-07-26T05:35:27.926Z,4.20
2018-07-26T05:36:28.178Z,4.40
2018-07-26T05:37:28.385Z,4.30
2018-07-26T05:38:28.435Z,4.00
2018-07-26T05:39:28.747Z,4.50
2018-07-26T05:40:28.889Z,4.70
2018-07-26T05:41:29.079Z,4.60
2018-07-26T05:42:29.265Z,4.90
2018-07-26T05:43:29.416Z,5.00
2018-07-26T05:44:29.583Z,5.00
2018-07-26T05:45:29.723Z,4.50
2018-07-26T05:46:29.931Z,5.10
2018-07-26T05:47:30.309Z,5.30
2018-07-26T05:48:30.261Z,5.00
2018-07-26T05:49:30.456Z,4.90
2018-07-26T05:50:30.712Z,4.70
2018-07-26T05:51:30.790Z,4.80
2018-07-26T05:52:30.910Z,5.00
2018-07-26T05:53:31.107Z,4.90
2018-07-26T05:54:31.300Z,4.80
2018-07-26T05:55:31.512Z,4.40
2018-07-26T05:56:31.654Z,4.40
2018-07-26T05:57:31.798Z,4.50
2018-07-26T05:58:32.059Z,4.90
2018-07-26T05:59:32.162Z,4.70
2018-07-26T06:00:32.468Z,4.60
2018-07-26T06:01:32.632Z,4.40
2018-07-26T06:02:32.802Z,4.30
2018-07-26T06:03:33.261Z,4.40
2018-07-26T06:04:33.041Z,4.70
2018-07-26T06:05:33.350Z,4.50
2018-07-26T06:06:33.363Z,4.20
2018-07-26T06:07:33.525Z,4.10
2018-07-26T06:08:33.957Z,4.20
2018-07-26T06:09:34.060Z,4.30
2018-07-26T06:10:34.097Z,4.50
2018-07-26T06:11:34.310Z,4.50
2018-07-26T06:12:34.446Z,4.10
2018-07-26T06:13:34.636Z,4.20
2018-07-26T06:14:34.761Z,3.90
2018-07-26T06:15:34.943Z,4.30
2018-07-26T06:16:35.092Z,4.20
2018-07-26T06:17:35.246Z,4.40
2018-07-26T06:18:35.782Z,4.20
2018-07-26T06:19:35.728Z,4.00
2018-07-26T06:20:35.916Z,3.90
2018-07-26T06:21:36.053Z,4.00
2018-07-26T06:22:37.178Z,4.10
2018-07-26T06:26:01.067Z,3.70
2018-07-26T06:26:53.112Z,4.10
2018-07-26T06:27:52.112Z,3.80
2018-07-26T06:32:25.034Z,3.90
2018-07-26T06:35:56.022Z,3.70
2018-07-26T09:51:43.701Z,2.40
2018-07-26T11:05:02.209Z,1.70
2018-07-26T13:34:16.381Z,2.20
2018-07-26T13:41:59.686Z,2.60
2018-07-26T17:03:06.896Z,2.80
2018-07-26T17:04:07.649Z,3.00
2018-07-26T17:09:52.921Z,3.10
2018-07-26T17:13:09.667Z,3.50
2018-07-26T17:15:39.669Z,3.50
2018-07-26T17:16:40.935Z,3.30
2018-07-26T17:17:40.995Z,3.20
2018-07-26T17:18:41.753Z,3.00
2018-07-26T17:19:43.124Z,3.10
2018-07-26T17:53:52.959Z,3.70
2018-07-26T17:54:54.081Z,3.80
2018-07-26T17:55:57.099Z,4.10
2018-07-26T17:58:30.560Z,3.80
2018-07-26T18:00:30.932Z,3.80
2018-07-26T18:01:29.984Z,4.10
2018-07-26T18:02:30.521Z,3.60
2018-07-26T18:03:29.481Z,4.20
2018-07-26T18:04:30.038Z,3.90
2018-07-26T18:24:28.796Z,4.00
2018-07-26T18:27:50.191Z,4.30
